createdAt,value
2019-06-26T00:03:00.000Z,99512
2019-06-26T00:08:00.000Z,99509
2019-06-26T00:13:00.000Z,99496
2019-06-26T00:18:00.000Z,99498
2019-06-26T00:23:00.000Z,99494
2019-06-26T00:28:00.000Z,99504
2019-06-26T00:33:00.000Z,99495
2019-06-26T00:38:00.000Z,99491
2019-06-26T00:43:00.000Z,99499
2019-06-26T00:48:00.000Z,99488
2019-06-26T00:53:00.000Z,99491
2019-06-26T00:58:00.000Z,99491
2019-06-26T01:03:00.000Z,99489
2019-06-26T01:08:00.000Z,99486
2019-06-26T01:13:00.000Z,99479
2019-06-26T01:18:00.000Z,99471
2019-06-26T01:23:00.000Z,99473
2019-06-26T01:29:00.000Z,99466
2019-06-26T01:34:00.000Z,99455
2019-06-26T01:39:00.000Z,99452
2019-06-26T01:44:00.000Z,99448
2019-06-26T01:49:00.000Z,99446
2019-06-26T01:54:00.000Z,99434
2019-06-26T01:59:00.000Z,99441
2019-06-26T02:04:00.000Z,99440
2019-06-26T02:09:00.000Z,99438
2019-06-26T02:14:00.000Z,99438
2019-06-26T02:19:00.000Z,99434
2019-06-26T02:24:00.000Z,99433
2019-06-26T02:29:00.000Z,99441
2019-06-26T02:34:00.000Z,99434
2019-06-26T02:39:00.000Z,99425
2019-06-26T02:44:00.000Z,99427
2019-06-26T02:49:00.000Z,99432
2019-06-26T02:54:00.000Z,99431
2019-06-26T02:59:00.000Z,99438
2019-06-26T03:04:00.000Z,99427
2019-06-26T03:09:00.000Z,99445
2019-06-26T03:14:00.000Z,99434
2019-06-26T03:20:00.000Z,99436
2019-06-26T03:25:00.000Z,99437
2019-06-26T03:30:00.000Z,99438
2019-06-26T03:35:00.000Z,99429
2019-06-26T03:40:00.000Z,99447
2019-06-26T03:45:00.000Z,99443
2019-06-26T03:50:00.000Z,99445
2019-06-26T03:55:00.000Z,99446
2019-06-26T04:00:00.000Z,99450
2019-06-26T04:05:00.000Z,99460
2019-06-26T04:10:00.000Z,99458
2019-06-26T04:15:00.000Z,99462
2019-06-26T04:20:00.000Z,99462
2019-06-26T04:25:00.000Z,99466
2019-06-26T04:30:00.000Z,99464
2019-06-26T04:35:00.000Z,99460
2019-06-26T04:40:00.000Z,99464
2019-06-26T04:45:00.000Z,99458
2019-06-26T04:50:00.000Z,99453
2019-06-26T04:55:00.000Z,99474
2019-06-26T05:01:00.000Z,99476
2019-06-26T05:06:00.000Z,99482
2019-06-26T05:11:00.000Z,99478
2019-06-26T05:16:00.000Z,99473
2019-06-26T05:21:00.000Z,99481
2019-06-26T05:26:00.000Z,99487
2019-06-26T05:31:00.000Z,99482
2019-06-26T05:36:00.000Z,99491
2019-06-26T05:41:00.000Z,99497
2019-06-26T05:46:00.000Z,99502
2019-06-26T05:51:00.000Z,99504
2019-06-26T05:56:00.000Z,99497
2019-06-26T06:01:00.000Z,99499
2019-06-26T06:06:00.000Z,99494
2019-06-26T06:11:00.000Z,99496
2019-06-26T06:16:00.000Z,99502
2019-06-26T06:21:00.000Z,99495
2019-06-26T06:26:00.000Z,99498
2019-06-26T06:31:00.000Z,99501
2019-06-26T06:36:00.000Z,99503
2019-06-26T06:41:00.000Z,99512
2019-06-26T06:46:00.000Z,99518
2019-06-26T06:52:00.000Z,99520
2019-06-26T06:57:00.000Z,99523
2019-06-26T07:02:00.000Z,99519
2019-06-26T07:07:00.000Z,99528
2019-06-26T07:12:00.000Z,99531
2019-06-26T07:17:00.000Z,99529
2019-06-26T07:22:00.000Z,99533
2019-06-26T07:27:00.000Z,99539
2019-06-26T07:32:00.000Z,99533
2019-06-26T07:37:00.000Z,99538
2019-06-26T07:42:00.000Z,99547
2019-06-26T07:47:00.000Z,99544
2019-06-26T07:52:00.000Z,99541
2019-06-26T07:57:00.000Z,99539
2019-06-26T08:02:00.000Z,99541
2019-06-26T08:07:00.000Z,99539
2019-06-26T08:12:00.000Z,99541
2019-06-26T08:17:00.000Z,99538
2019-06-26T08:23:00.000Z,99541
2019-06-26T08:28:00.000Z,99538
2019-06-26T08:33:00.000Z,99545
2019-06-26T08:38:00.000Z,99551
2019-06-26T08:43:00.000Z,99541
2019-06-26T08:53:00.000Z,99544
2019-06-26T08:58:00.000Z,99547
2019-06-26T09:03:00.000Z,99542
2019-06-26T09:08:00.000Z,99542
2019-06-26T09:13:00.000Z,99542
2019-06-26T09:18:00.000Z,99535
2019-06-26T09:23:00.000Z,99544
2019-06-26T09:28:00.000Z,99532
2019-06-26T09:33:00.000Z,99537
2019-06-26T09:38:00.000Z,99539
2019-06-26T09:43:00.000Z,99531
2019-06-26T09:48:00.000Z,99529
2019-06-26T09:53:00.000Z,99531
2019-06-26T09:58:00.000Z,99532
2019-06-26T10:03:00.000Z,99531
2019-06-26T10:08:00.000Z,99526
2019-06-26T10:13:00.000Z,99524
2019-06-26T10:18:00.000Z,99508
2019-06-26T10:24:00.000Z,99511
2019-06-26T10:29:00.000Z,99509
2019-06-26T10:34:00.000Z,99514
2019-06-26T10:39:00.000Z,99508
2019-06-26T10:44:00.000Z,99492
2019-06-26T10:49:00.000Z,99501
2019-06-26T10:54:00.000Z,99493
2019-06-26T10:59:00.000Z,99497
2019-06-26T11:04:00.000Z,99487
2019-06-26T11:09:00.000Z,99486
2019-06-26T11:14:00.000Z,99485
2019-06-26T11:19:00.000Z,99479
2019-06-26T11:24:00.000Z,99469
2019-06-26T11:29:00.000Z,99469
2019-06-26T11:34:00.000Z,99467
2019-06-26T11:39:00.000Z,99460
2019-06-26T11:44:00.000Z,99456
2019-06-26T11:49:00.000Z,99447
2019-06-26T11:55:00.000Z,99442
2019-06-26T12:00:00.000Z,99441
2019-06-26T12:05:00.000Z,99444
2019-06-26T12:10:00.000Z,99434
2019-06-26T12:15:00.000Z,99431
2019-06-26T12:20:00.000Z,99433
2019-06-26T12:25:00.000Z,99426
2019-06-26T12:30:00.000Z,99419
2019-06-26T12:35:00.000Z,99417
2019-06-26T12:40:00.000Z,99412
2019-06-26T12:45:00.000Z,99412
2019-06-26T12:50:00.000Z,99408
2019-06-26T12:55:00.000Z,99398
2019-06-26T13:00:00.000Z,99402
2019-06-26T13:05:00.000Z,99395
2019-06-26T13:10:00.000Z,99400
2019-06-26T13:15:00.000Z,99390
2019-06-26T13:20:00.000Z,99389
2019-06-26T13:25:00.000Z,99377
2019-06-26T13:30:00.000Z,99381
2019-06-26T13:35:00.000Z,99360
2019-06-26T13:40:00.000Z,99363
2019-06-26T13:45:00.000Z,99372
2019-06-26T13:50:00.000Z,99364
2019-06-26T13:56:00.000Z,99359
2019-06-26T14:01:00.000Z,99351
2019-06-26T14:06:00.000Z,99352
2019-06-26T14:11:00.000Z,99357
2019-06-26T14:16:00.000Z,99340
2019-06-26T14:21:00.000Z,99341
2019-06-26T14:26:00.000Z,99330
2019-06-26T14:31:00.000Z,99331
2019-06-26T14:36:00.000Z,99329
2019-06-26T14:41:00.000Z,99326
2019-06-26T14:46:00.000Z,99322
2019-06-26T14:51:00.000Z,99318
2019-06-26T14:56:00.000Z,99315
2019-06-26T15:01:00.000Z,99305
2019-06-26T15:06:00.000Z,99294
2019-06-26T15:11:00.000Z,99296
2019-06-26T15:16:00.000Z,99292
2019-06-26T15:21:00.000Z,99284
2019-06-26T15:26:00.000Z,99277
2019-06-26T15:32:00.000Z,99279
2019-06-26T15:37:00.000Z,99273
2019-06-26T15:42:00.000Z,99277
2019-06-26T15:47:00.000Z,99272
2019-06-26T15:52:00.000Z,99271
2019-06-26T15:57:00.000Z,99259
2019-06-26T16:02:00.000Z,99257
2019-06-26T16:07:00.000Z,99250
2019-06-26T16:12:00.000Z,99245
2019-06-26T16:17:00.000Z,99249
2019-06-26T16:22:00.000Z,99248
2019-06-26T16:27:00.000Z,99239
2019-06-26T16:32:00.000Z,99247
2019-06-26T16:37:00.000Z,99250
2019-06-26T16:42:00.000Z,99230
2019-06-26T16:47:00.000Z,99235
2019-06-26T16:52:00.000Z,99232
2019-06-26T16:57:00.000Z,99226
2019-06-26T17:02:00.000Z,99232
2019-06-26T17:07:00.000Z,99239
2019-06-26T17:12:00.000Z,99238
2019-06-26T17:17:00.000Z,99238
2019-06-26T17:22:00.000Z,99237
2019-06-26T17:28:00.000Z,99237
2019-06-26T17:33:00.000Z,99239
2019-06-26T17:38:00.000Z,99238
2019-06-26T17:43:00.000Z,99234
2019-06-26T17:48:00.000Z,99244
2019-06-26T17:53:00.000Z,99241
2019-06-26T17:58:00.000Z,99240
2019-06-26T18:03:00.000Z,99242
2019-06-26T18:08:00.000Z,99231
2019-06-26T18:13:00.000Z,99241
2019-06-26T18:18:00.000Z,99236
2019-06-26T18:23:00.000Z,99235
2019-06-26T18:28:00.000Z,99234
2019-06-26T18:33:00.000Z,99239
2019-06-26T18:38:00.000Z,99238
2019-06-26T18:43:00.000Z,99238
2019-06-26T18:48:00.000Z,99231
2019-06-26T18:53:00.000Z,99231
2019-06-26T18:58:00.000Z,99230
2019-06-26T19:03:00.000Z,99232
2019-06-26T19:08:00.000Z,99233
2019-06-26T19:13:00.000Z,99243
2019-06-26T19:18:00.000Z,99247
2019-06-26T19:23:00.000Z,99243
2019-06-26T19:29:00.000Z,99249
2019-06-26T19:34:00.000Z,99244
2019-06-26T19:39:00.000Z,99251
2019-06-26T19:44:00.000Z,99253
2019-06-26T19:49:00.000Z,99249
2019-06-26T19:54:00.000Z,99252
2019-06-26T19:59:00.000Z,99254
2019-06-26T20:04:00.000Z,99252
2019-06-26T20:09:00.000Z,99255
2019-06-26T20:14:00.000Z,99257
2019-06-26T20:19:00.000Z,99246
2019-06-26T20:24:00.000Z,99242
2019-06-26T20:29:00.000Z,99244
2019-06-26T20:34:00.000Z,99245
2019-06-26T20:39:00.000Z,99252
2019-06-26T20:44:00.000Z,99243
2019-06-26T20:49:00.000Z,99243
2019-06-26T20:54:00.000Z,99242
2019-06-26T21:00:00.000Z,99242
2019-06-26T21:05:00.000Z,99241
2019-06-26T21:10:00.000Z,99244
2019-06-26T21:15:00.000Z,99244
2019-06-26T21:20:00.000Z,99240
2019-06-26T21:25:00.000Z,99240
2019-06-26T21:30:00.000Z,99245
2019-06-26T21:35:00.000Z,99241
2019-06-26T21:40:00.000Z,99238
2019-06-26T21:45:00.000Z,99233
2019-06-26T21:50:00.000Z,99237
2019-06-26T21:55:00.000Z,99229
2019-06-26T22:00:00.000Z,99232
2019-06-26T22:05:00.000Z,99228
2019-06-26T22:10:00.000Z,99222
2019-06-26T22:15:00.000Z,99219
2019-06-26T22:20:00.000Z,99225
2019-06-26T22:25:00.000Z,99223
2019-06-26T22:30:00.000Z,99221
2019-06-26T22:35:00.000Z,99217
2019-06-26T22:40:00.000Z,99218
2019-06-26T22:45:00.000Z,99216
2019-06-26T22:50:00.000Z,99212
2019-06-26T22:55:00.000Z,99195
2019-06-26T23:01:00.000Z,99187
2019-06-26T23:06:00.000Z,99180
2019-06-26T23:11:00.000Z,99175
2019-06-26T23:16:00.000Z,99172
2019-06-26T23:21:00.000Z,99181
2019-06-26T23:26:00.000Z,99174
2019-06-26T23:31:00.000Z,99170
2019-06-26T23:36:00.000Z,99170
2019-06-26T23:41:00.000Z,99171
2019-06-26T23:46:00.000Z,99168
2019-06-26T23:51:00.000Z,99167
2019-06-26T23:56:00.000Z,99156
